createdAt,value
2017-12-11T00:00:03.598Z,0
2017-12-11T00:01:03.088Z,0
2017-12-11T00:02:03.354Z,0
2017-12-11T00:03:04.008Z,0
2017-12-11T00:04:03.312Z,0
2017-12-11T00:05:03.882Z,0
2017-12-11T00:06:03.619Z,0
2017-12-11T00:07:03.858Z,0
2017-12-11T00:08:04.072Z,0
2017-12-11T00:09:04.087Z,0
2017-12-11T00:10:04.270Z,0
2017-12-11T00:11:04.726Z,0
2017-12-11T00:12:04.242Z,0
2017-12-11T00:13:04.648Z,0
2017-12-11T00:14:05.039Z,0
2017-12-11T00:15:05.217Z,0
2017-12-11T00:16:05.202Z,0
2017-12-11T00:17:05.190Z,0
2017-12-11T00:18:05.467Z,0
2017-12-11T00:19:05.592Z,0
2017-12-11T00:20:05.646Z,0
2017-12-11T00:21:04.975Z,0
2017-12-11T00:22:05.670Z,0
2017-12-11T00:23:05.943Z,0
2017-12-11T00:24:05.716Z,0
2017-12-11T00:25:05.843Z,0
2017-12-11T00:26:05.850Z,0
2017-12-11T00:27:05.387Z,0
2017-12-11T00:28:05.952Z,0
2017-12-11T00:29:05.935Z,0
2017-12-11T00:30:05.707Z,0
2017-12-11T00:31:06.498Z,0
2017-12-11T00:32:06.464Z,0
2017-12-11T00:33:06.608Z,0
2017-12-11T00:34:06.478Z,0
2017-12-11T00:35:06.828Z,0
2017-12-11T00:36:06.785Z,0
2017-12-11T00:37:07.592Z,0
2017-12-11T00:38:07.570Z,0
2017-12-11T00:39:07.291Z,0
2017-12-11T00:40:07.340Z,0
2017-12-11T00:41:07.741Z,0
2017-12-11T00:42:07.528Z,0
2017-12-11T00:44:08.491Z,0
2017-12-11T00:45:08.967Z,0
2017-12-11T00:46:08.088Z,0
2017-12-11T00:47:08.509Z,0
2017-12-11T00:48:08.279Z,0
2017-12-11T00:49:08.770Z,0
2017-12-11T00:50:08.520Z,0
2017-12-11T00:51:08.790Z,0
2017-12-11T00:52:09.058Z,0
2017-12-11T00:53:08.331Z,0
2017-12-11T00:54:08.982Z,0
2017-12-11T00:55:09.067Z,0
2017-12-11T00:56:09.099Z,0
2017-12-11T00:57:08.852Z,0
2017-12-11T00:58:09.013Z,0
2017-12-11T00:59:09.739Z,0
2017-12-11T01:00:10.196Z,0
2017-12-11T01:01:09.298Z,0
2017-12-11T01:02:10.510Z,0
2017-12-11T01:03:10.347Z,0
2017-12-11T01:04:10.382Z,0
2017-12-11T01:05:09.574Z,0
2017-12-11T01:06:09.988Z,0
2017-12-11T01:07:12.409Z,0
2017-12-11T01:08:11.878Z,0
2017-12-11T01:09:12.407Z,0
2017-12-11T01:10:12.521Z,0
2017-12-11T01:11:41.705Z,0
2017-12-11T01:12:12.796Z,0
2017-12-11T01:13:13.312Z,0
2017-12-11T01:14:12.326Z,0
2017-12-11T01:15:12.443Z,0
2017-12-11T01:16:12.748Z,0
2017-12-11T01:17:13.173Z,0
2017-12-11T01:18:12.545Z,0
2017-12-11T01:19:13.408Z,0
2017-12-11T01:20:13.190Z,0
2017-12-11T01:21:13.343Z,0
2017-12-11T01:22:13.495Z,0
2017-12-11T01:23:13.926Z,0
2017-12-11T01:24:13.052Z,0
2017-12-11T01:25:14.594Z,0
2017-12-11T01:26:13.951Z,0
2017-12-11T01:27:13.067Z,0
2017-12-11T01:28:13.316Z,0
2017-12-11T01:29:13.501Z,0
2017-12-11T01:30:14.187Z,0
2017-12-11T01:31:14.584Z,0
2017-12-11T01:32:14.978Z,0
2017-12-11T01:33:14.696Z,0
2017-12-11T01:34:15.125Z,0
2017-12-11T01:35:15.129Z,0
2017-12-11T01:36:15.193Z,0
2017-12-11T01:37:15.048Z,0
2017-12-11T01:38:14.996Z,0
2017-12-11T01:39:14.950Z,0
2017-12-11T01:40:15.379Z,0
2017-12-11T01:41:15.405Z,0
2017-12-11T01:42:15.170Z,0
2017-12-11T01:43:15.592Z,0
2017-12-11T01:44:16.043Z,0
2017-12-11T01:45:15.795Z,0
2017-12-11T01:46:16.114Z,0
2017-12-11T01:47:16.326Z,0
2017-12-11T01:48:16.191Z,0
2017-12-11T01:49:16.378Z,0
2017-12-11T01:50:18.534Z,0
2017-12-11T01:51:16.479Z,0
2017-12-11T01:52:16.623Z,0
2017-12-11T01:53:17.114Z,0
2017-12-11T01:54:16.779Z,0
2017-12-11T01:55:16.795Z,0
2017-12-11T01:56:17.045Z,0
2017-12-11T01:57:17.702Z,0
2017-12-11T01:58:17.771Z,0
2017-12-11T01:59:17.720Z,0
2017-12-11T02:00:18.318Z,0
2017-12-11T02:01:17.981Z,0
2017-12-11T02:02:18.245Z,0
2017-12-11T02:03:18.346Z,0
2017-12-11T02:04:18.687Z,0
2017-12-11T02:05:18.907Z,0
2017-12-11T02:06:18.729Z,0
2017-12-11T02:07:18.392Z,0
2017-12-11T02:08:18.804Z,0
2017-12-11T02:09:19.019Z,0
2017-12-11T02:10:19.168Z,0
2017-12-11T02:11:19.537Z,0
2017-12-11T02:12:19.587Z,0
2017-12-11T02:13:20.005Z,0
2017-12-11T02:14:20.062Z,0
2017-12-11T02:15:20.066Z,0
2017-12-11T02:16:20.473Z,0
2017-12-11T02:17:20.900Z,0
2017-12-11T02:18:20.953Z,0
2017-12-11T02:19:20.931Z,0
2017-12-11T02:20:21.312Z,0
2017-12-11T02:21:20.991Z,0
2017-12-11T02:22:20.741Z,0
2017-12-11T02:23:21.203Z,0
2017-12-11T02:24:21.426Z,0
2017-12-11T02:25:21.867Z,0
2017-12-11T02:26:22.247Z,0
2017-12-11T02:27:22.312Z,0
2017-12-11T02:28:22.732Z,0
2017-12-11T02:29:22.781Z,0
2017-12-11T02:30:22.554Z,0
2017-12-11T02:31:22.981Z,0
2017-12-11T02:32:23.568Z,0
2017-12-11T02:33:23.407Z,0
2017-12-11T02:34:23.161Z,0
2017-12-11T02:35:23.863Z,0
2017-12-11T02:36:23.715Z,0
2017-12-11T02:37:24.334Z,0
2017-12-11T02:38:24.135Z,0
2017-12-11T02:39:23.838Z,0
2017-12-11T02:40:24.692Z,0
2017-12-11T02:41:24.099Z,0
2017-12-11T02:42:24.736Z,0
2017-12-11T02:43:24.999Z,0
2017-12-11T02:44:24.745Z,0
2017-12-11T02:45:25.213Z,0
2017-12-11T02:46:25.185Z,0
2017-12-11T02:47:30.217Z,0
2017-12-11T02:48:30.647Z,0
2017-12-11T02:49:30.687Z,0
2017-12-11T02:50:30.849Z,0
2017-12-11T02:51:30.749Z,0
2017-12-11T02:52:30.476Z,0
2017-12-11T02:53:31.141Z,0
2017-12-11T02:54:30.915Z,0
2017-12-11T02:55:31.316Z,0
2017-12-11T02:56:31.729Z,0
2017-12-11T02:57:31.207Z,0
2017-12-11T02:58:31.751Z,0
2017-12-11T02:59:31.798Z,0
2017-12-11T03:00:31.980Z,0
2017-12-11T03:01:32.091Z,0
2017-12-11T03:02:32.070Z,0
2017-12-11T03:03:34.261Z,0
2017-12-11T03:04:31.830Z,0
2017-12-11T03:05:31.980Z,0
2017-12-11T03:06:32.547Z,0
2017-12-11T03:07:33.452Z,0
2017-12-11T03:08:33.412Z,0
2017-12-11T03:09:33.400Z,0
2017-12-11T03:10:35.024Z,0
2017-12-11T03:11:33.465Z,0
2017-12-11T03:12:33.906Z,0
2017-12-11T03:13:33.355Z,0
2017-12-11T03:14:33.562Z,0
2017-12-11T03:15:33.842Z,0
2017-12-11T03:16:34.080Z,0
2017-12-11T03:17:34.326Z,0
2017-12-11T03:18:34.329Z,0
2017-12-11T03:19:34.506Z,0
2017-12-11T03:20:34.528Z,0
2017-12-11T03:21:34.496Z,0
2017-12-11T03:22:34.789Z,0
2017-12-11T03:23:34.549Z,0
2017-12-11T03:24:34.298Z,0
2017-12-11T03:25:34.983Z,0
2017-12-11T03:26:34.721Z,0
2017-12-11T03:27:34.907Z,0
2017-12-11T03:28:35.309Z,0
2017-12-11T03:29:35.736Z,0
2017-12-11T03:30:50.828Z,0
2017-12-11T03:31:50.777Z,0
2017-12-11T03:32:50.314Z,0
2017-12-11T03:33:51.171Z,0
2017-12-11T03:34:50.862Z,0
2017-12-11T03:35:50.856Z,0
2017-12-11T03:36:50.523Z,0
2017-12-11T03:37:51.328Z,0
2017-12-11T03:38:51.323Z,0
2017-12-11T03:39:52.544Z,0
2017-12-11T03:40:51.420Z,0
2017-12-11T03:41:52.196Z,0
2017-12-11T03:42:52.727Z,0
2017-12-11T03:43:52.782Z,0
2017-12-11T03:44:51.814Z,0
2017-12-11T03:45:52.358Z,0
2017-12-11T03:46:52.034Z,0
2017-12-11T03:47:53.884Z,0
2017-12-11T03:48:52.750Z,0
2017-12-11T03:49:52.787Z,0
2017-12-11T03:50:52.201Z,0
2017-12-11T03:51:52.713Z,0
2017-12-11T03:52:52.802Z,0
2017-12-11T03:53:52.523Z,0
2017-12-11T03:54:53.199Z,0
2017-12-11T03:55:52.989Z,0
2017-12-11T03:56:53.242Z,0
2017-12-11T03:57:53.540Z,0
2017-12-11T03:58:53.201Z,0
2017-12-11T03:59:53.501Z,0
2017-12-11T04:00:53.519Z,0
2017-12-11T04:01:53.352Z,0
2017-12-11T04:02:53.794Z,0
2017-12-11T04:04:08.145Z,0
2017-12-11T04:04:54.362Z,0
2017-12-11T04:05:53.857Z,0
2017-12-11T04:06:54.112Z,0
2017-12-11T04:08:03.115Z,0
2017-12-11T04:09:02.564Z,0
2017-12-11T04:10:03.051Z,0
2017-12-11T04:11:03.333Z,0
2017-12-11T04:12:03.025Z,0
2017-12-11T04:13:03.461Z,0
2017-12-11T04:14:03.827Z,0
2017-12-11T04:15:04.028Z,0
2017-12-11T04:16:03.952Z,0
2017-12-11T04:17:03.980Z,0
2017-12-11T04:18:04.136Z,0
2017-12-11T04:19:04.336Z,0
2017-12-11T04:20:04.801Z,0
2017-12-11T04:21:04.706Z,0
2017-12-11T04:22:04.548Z,0
2017-12-11T04:23:05.309Z,0
2017-12-11T04:24:04.802Z,0
2017-12-11T04:25:04.987Z,0
2017-12-11T04:26:05.437Z,0
2017-12-11T04:27:05.997Z,0
2017-12-11T04:28:05.621Z,0
2017-12-11T04:29:05.732Z,0
2017-12-11T04:30:05.140Z,0
2017-12-11T04:31:05.749Z,0
2017-12-11T04:32:05.105Z,0
2017-12-11T04:33:05.838Z,0
2017-12-11T04:34:06.302Z,0
2017-12-11T04:35:06.330Z,0
2017-12-11T04:36:06.471Z,0
2017-12-11T04:37:06.047Z,0
2017-12-11T04:38:06.458Z,0
2017-12-11T04:39:06.471Z,0
2017-12-11T04:40:06.425Z,0
2017-12-11T04:41:06.631Z,0
2017-12-11T04:42:07.824Z,0
2017-12-11T04:43:06.160Z,0
2017-12-11T04:44:06.897Z,0
2017-12-11T04:45:07.105Z,0
2017-12-11T04:46:07.054Z,0
2017-12-11T04:47:07.197Z,0
2017-12-11T04:48:08.233Z,0
2017-12-11T04:49:08.430Z,0
2017-12-11T04:50:07.297Z,0
2017-12-11T04:51:07.595Z,0
2017-12-11T04:52:07.518Z,0
2017-12-11T04:53:07.941Z,0
2017-12-11T04:54:08.678Z,0
2017-12-11T04:55:09.092Z,0
2017-12-11T04:56:08.393Z,0
2017-12-11T04:57:08.408Z,0
2017-12-11T04:58:08.862Z,0
2017-12-11T04:59:09.026Z,0
2017-12-11T05:01:08.188Z,0
2017-12-11T05:01:39.014Z,0
2017-12-11T05:02:24.106Z,0
2017-12-11T05:03:24.611Z,0
2017-12-11T05:04:24.778Z,0
2017-12-11T05:05:24.400Z,0
2017-12-11T05:06:24.712Z,0
2017-12-11T05:07:24.788Z,0
2017-12-11T05:08:25.342Z,0
2017-12-11T05:09:25.599Z,0
2017-12-11T05:10:25.578Z,0
2017-12-11T05:11:26.021Z,0
2017-12-11T05:12:26.496Z,0
2017-12-11T05:13:26.489Z,0
2017-12-11T05:14:27.058Z,0
2017-12-11T05:15:27.035Z,0
2017-12-11T05:16:27.458Z,0
2017-12-11T05:17:28.142Z,0
2017-12-11T05:18:28.186Z,0
2017-12-11T05:19:27.955Z,0
2017-12-11T05:20:28.425Z,0
2017-12-11T05:21:27.851Z,0
2017-12-11T05:22:28.146Z,0
2017-12-11T05:23:28.839Z,0
2017-12-11T05:24:29.111Z,0
2017-12-11T05:25:29.187Z,0
2017-12-11T05:26:29.162Z,0
2017-12-11T05:27:29.593Z,0
2017-12-11T05:28:29.855Z,0
2017-12-11T05:29:29.539Z,0
2017-12-11T05:30:30.061Z,0
2017-12-11T05:31:29.765Z,0
2017-12-11T05:32:29.592Z,0
2017-12-11T05:33:30.142Z,0
2017-12-11T05:34:30.935Z,0
2017-12-11T05:35:30.341Z,0
2017-12-11T05:36:29.935Z,0
2017-12-11T05:37:30.304Z,0
2017-12-11T05:38:30.174Z,0
2017-12-11T05:39:29.927Z,0
2017-12-11T05:40:29.833Z,0
2017-12-11T05:41:29.867Z,0
2017-12-11T05:42:30.332Z,0
2017-12-11T05:43:31.151Z,0
2017-12-11T05:44:30.699Z,0
2017-12-11T05:45:31.477Z,0
2017-12-11T05:46:30.674Z,0
2017-12-11T05:47:31.453Z,0
2017-12-11T05:48:31.463Z,0
2017-12-11T05:49:31.526Z,0
2017-12-11T05:50:31.148Z,0
2017-12-11T05:51:31.917Z,0
2017-12-11T05:52:32.024Z,0
2017-12-11T05:53:31.974Z,0
2017-12-11T05:54:32.741Z,0
2017-12-11T05:55:32.685Z,0
2017-12-11T05:56:32.952Z,0
2017-12-11T05:57:32.494Z,0
2017-12-11T05:58:31.972Z,0
2017-12-11T05:59:32.748Z,0
2017-12-11T06:00:37.904Z,0
2017-12-11T06:01:37.759Z,0
2017-12-11T06:02:38.171Z,0
2017-12-11T06:03:38.072Z,0
2017-12-11T06:04:38.642Z,0
2017-12-11T06:05:39.113Z,0
2017-12-11T06:06:38.939Z,0
2017-12-11T06:07:39.177Z,0
2017-12-11T06:08:38.922Z,0
2017-12-11T06:09:39.628Z,0
2017-12-11T06:10:40.033Z,0
2017-12-11T06:11:40.415Z,0
2017-12-11T06:12:40.196Z,0
2017-12-11T06:13:40.881Z,0
2017-12-11T06:14:41.061Z,0
2017-12-11T06:15:41.483Z,0
2017-12-11T06:16:42.155Z,0
2017-12-11T06:17:42.022Z,0
2017-12-11T06:18:42.454Z,0
2017-12-11T06:19:42.919Z,0
2017-12-11T06:20:42.655Z,0
2017-12-11T06:21:42.620Z,0
2017-12-11T06:22:42.866Z,0
2017-12-11T06:23:43.410Z,0
2017-12-11T06:24:43.224Z,0
2017-12-11T06:25:42.985Z,0
2017-12-11T06:26:43.744Z,0
2017-12-11T06:27:43.690Z,0
2017-12-11T06:28:43.663Z,4
2017-12-11T06:29:43.588Z,4
2017-12-11T06:30:44.075Z,4
2017-12-11T06:31:44.198Z,4
2017-12-11T06:32:44.793Z,0
2017-12-11T06:33:44.860Z,0
2017-12-11T06:34:45.073Z,0
2017-12-11T06:35:45.266Z,4
2017-12-11T06:36:46.012Z,4
2017-12-11T06:37:45.732Z,4
2017-12-11T06:38:46.010Z,4
2017-12-11T06:39:46.460Z,4
2017-12-11T06:40:46.206Z,4
2017-12-11T06:41:46.654Z,8
2017-12-11T06:42:47.328Z,8
2017-12-11T06:43:47.811Z,12
2017-12-11T06:44:47.876Z,12
2017-12-11T06:45:47.887Z,12
2017-12-11T06:46:48.400Z,16
2017-12-11T06:47:47.862Z,16
2017-12-11T06:48:47.641Z,16
2017-12-11T06:49:48.305Z,20
2017-12-11T06:50:47.533Z,24
2017-12-11T06:51:48.352Z,28
2017-12-11T06:52:48.534Z,32
2017-12-11T06:53:48.989Z,36
2017-12-11T06:54:48.999Z,40
2017-12-11T06:55:49.023Z,48
2017-12-11T06:56:48.904Z,52
2017-12-11T06:57:49.343Z,56
2017-12-11T06:58:49.768Z,60
2017-12-11T06:59:49.756Z,64
2017-12-11T07:00:51.088Z,72
2017-12-11T07:01:50.436Z,80
2017-12-11T07:02:50.441Z,88
2017-12-11T07:03:50.472Z,96
2017-12-11T07:04:50.499Z,104
2017-12-11T07:05:50.498Z,116
2017-12-11T07:06:50.980Z,124
2017-12-11T07:07:51.170Z,132
2017-12-11T07:08:50.884Z,144
2017-12-11T07:09:51.473Z,156
2017-12-11T07:10:51.074Z,168
2017-12-11T07:11:51.802Z,184
2017-12-11T07:12:52.277Z,196
2017-12-11T07:13:52.206Z,208
2017-12-11T07:14:52.343Z,220
2017-12-11T07:15:52.284Z,232
2017-12-11T07:16:52.298Z,244
2017-12-11T07:17:51.908Z,256
2017-12-11T07:18:52.359Z,272
2017-12-11T07:19:52.857Z,284
2017-12-11T07:20:53.087Z,292
2017-12-11T07:21:53.596Z,304
2017-12-11T07:22:53.056Z,320
2017-12-11T07:23:53.615Z,332
2017-12-11T07:24:53.847Z,344
2017-12-11T07:25:53.463Z,360
2017-12-11T07:26:53.483Z,376
2017-12-11T07:27:53.430Z,396
2017-12-11T07:28:54.394Z,420
2017-12-11T07:29:54.025Z,456
2017-12-11T07:30:54.265Z,484
2017-12-11T07:32:08.571Z,496
2017-12-11T07:32:53.995Z,516
2017-12-11T07:33:54.971Z,536
2017-12-11T07:34:54.778Z,560
2017-12-11T07:35:55.498Z,576
2017-12-11T07:36:54.297Z,600
2017-12-11T07:37:54.596Z,628
2017-12-11T07:38:56.469Z,656
2017-12-11T07:39:56.812Z,688
2017-12-11T07:40:55.796Z,728
2017-12-11T07:41:55.812Z,776
2017-12-11T07:42:56.203Z,812
2017-12-11T07:43:56.135Z,864
2017-12-11T07:44:55.803Z,932
2017-12-11T07:45:56.365Z,996
2017-12-11T07:46:56.039Z,1076
2017-12-11T07:47:56.046Z,1124
2017-12-11T07:48:56.483Z,1132
2017-12-11T07:49:56.183Z,1140
2017-12-11T07:50:56.907Z,1164
2017-12-11T07:51:57.153Z,1192
2017-12-11T07:52:57.603Z,1216
2017-12-11T07:53:57.618Z,1228
2017-12-11T07:54:58.048Z,1256
2017-12-11T07:55:58.692Z,1280
2017-12-11T07:56:58.628Z,1312
2017-12-11T07:57:58.435Z,1368
2017-12-11T07:58:58.458Z,1416
2017-12-11T07:59:58.496Z,1460
2017-12-11T08:00:58.969Z,1512
2017-12-11T08:01:58.719Z,1596
2017-12-11T08:02:58.899Z,1636
2017-12-11T08:03:58.634Z,1700
2017-12-11T08:04:59.346Z,1704
2017-12-11T08:05:59.526Z,1672
2017-12-11T08:06:59.490Z,1628
2017-12-11T08:08:00.139Z,1564
2017-12-11T08:08:59.833Z,1512
2017-12-11T08:10:00.564Z,1472
2017-12-11T08:11:00.347Z,1460
2017-12-11T08:12:00.032Z,1452
2017-12-11T08:13:00.586Z,1460
2017-12-11T08:14:01.381Z,1492
2017-12-11T08:15:00.619Z,1528
2017-12-11T08:16:00.879Z,1572
2017-12-11T08:17:00.569Z,1652
2017-12-11T08:18:01.245Z,1728
2017-12-11T08:19:01.585Z,1804
2017-12-11T08:20:01.363Z,1900
2017-12-11T08:21:01.286Z,1860
2017-12-11T08:22:01.495Z,1872
2017-12-11T08:23:01.708Z,1852
2017-12-11T08:24:02.162Z,1880
2017-12-11T08:25:02.919Z,1884
2017-12-11T08:26:02.082Z,1888
2017-12-11T08:27:02.659Z,1888
2017-12-11T08:28:02.663Z,1876
2017-12-11T08:29:02.268Z,1888
2017-12-11T08:30:02.892Z,1908
2017-12-11T08:31:03.245Z,1932
2017-12-11T08:32:03.996Z,1936
2017-12-11T08:33:02.567Z,1924
2017-12-11T08:34:02.713Z,1976
2017-12-11T08:35:03.386Z,2036
2017-12-11T08:36:02.925Z,2096
2017-12-11T08:37:03.656Z,2168
2017-12-11T08:38:04.246Z,2176
2017-12-11T08:39:19.249Z,2184
2017-12-11T08:40:03.838Z,2212
2017-12-11T08:41:03.566Z,2232
2017-12-11T08:42:08.478Z,2204
2017-12-11T08:43:08.558Z,2160
2017-12-11T08:44:09.145Z,2148
2017-12-11T08:45:09.119Z,2116
2017-12-11T08:46:09.247Z,2084
2017-12-11T08:47:10.041Z,2032
2017-12-11T08:48:09.904Z,2016
2017-12-11T08:49:10.968Z,1996
2017-12-11T08:50:10.712Z,1948
2017-12-11T08:51:11.209Z,1948
2017-12-11T08:52:08.952Z,1960
2017-12-11T08:53:09.688Z,1964
2017-12-11T08:54:09.255Z,1984
2017-12-11T08:55:09.790Z,2024
2017-12-11T08:56:10.238Z,2040
2017-12-11T08:57:09.568Z,1992
2017-12-11T08:58:09.032Z,1984
2017-12-11T08:59:09.384Z,1972
2017-12-11T09:00:09.342Z,1956
2017-12-11T09:01:09.345Z,1964
2017-12-11T09:02:09.478Z,1984
2017-12-11T09:03:08.892Z,2008
2017-12-11T09:04:10.137Z,2064
2017-12-11T09:05:10.486Z,2124
2017-12-11T09:06:10.950Z,2160
2017-12-11T09:07:10.647Z,2144
2017-12-11T09:08:10.488Z,2140
2017-12-11T09:09:10.383Z,2156
2017-12-11T09:10:11.353Z,2144
2017-12-11T09:11:11.510Z,2116
2017-12-11T09:12:10.995Z,2148
2017-12-11T09:13:11.242Z,2156
2017-12-11T09:14:10.602Z,2192
2017-12-11T09:15:10.577Z,2236
2017-12-11T09:16:10.710Z,2228
2017-12-11T09:17:11.313Z,2256
2017-12-11T09:18:11.186Z,2348
2017-12-11T09:19:12.185Z,2416
2017-12-11T09:20:11.012Z,2460
2017-12-11T09:21:11.461Z,2500
2017-12-11T09:22:11.993Z,2500
2017-12-11T09:23:11.038Z,2460
2017-12-11T09:24:11.904Z,2404
2017-12-11T09:25:12.254Z,2312
2017-12-11T09:26:12.444Z,2236
2017-12-11T09:27:11.990Z,2180
2017-12-11T09:28:27.445Z,2088
2017-12-11T09:29:12.397Z,2028
2017-12-11T09:30:12.232Z,1976
2017-12-11T09:31:12.528Z,1964
2017-12-11T09:32:12.273Z,1984
2017-12-11T09:33:11.943Z,2000
2017-12-11T09:34:12.202Z,2004
2017-12-11T09:35:13.063Z,2004
2017-12-11T09:36:12.682Z,2008
2017-12-11T09:37:13.585Z,2004
2017-12-11T09:38:13.525Z,2004
2017-12-11T09:39:13.072Z,1984
2017-12-11T09:40:13.313Z,1952
2017-12-11T09:41:13.782Z,1900
2017-12-11T09:42:13.822Z,1836
2017-12-11T09:43:14.084Z,1796
2017-12-11T09:44:13.893Z,1756
2017-12-11T09:45:14.338Z,1736
2017-12-11T09:46:14.216Z,1720
2017-12-11T09:47:14.318Z,1708
2017-12-11T09:48:14.436Z,1716
2017-12-11T09:49:14.554Z,1748
2017-12-11T09:50:15.210Z,1800
2017-12-11T09:51:14.998Z,1868
2017-12-11T09:52:14.994Z,1936
2017-12-11T09:53:15.477Z,1964
2017-12-11T09:54:15.220Z,2008
2017-12-11T09:55:15.412Z,2096
2017-12-11T09:56:15.165Z,2160
2017-12-11T09:57:15.954Z,2200
2017-12-11T09:58:16.328Z,2240
2017-12-11T09:59:15.882Z,2268
2017-12-11T10:00:15.810Z,2300
2017-12-11T10:01:17.147Z,2352
2017-12-11T10:02:16.738Z,2344
2017-12-11T10:03:16.852Z,2336
2017-12-11T10:04:16.372Z,2364
2017-12-11T10:05:16.360Z,2388
2017-12-11T10:07:16.441Z,2332
2017-12-11T10:08:16.817Z,2248
2017-12-11T10:09:16.463Z,2204
2017-12-11T10:10:16.897Z,2120
2017-12-11T10:11:17.269Z,2016
2017-12-11T10:12:17.076Z,1964
2017-12-11T10:13:16.811Z,1956
2017-12-11T10:14:17.143Z,1936
2017-12-11T10:15:17.585Z,1908
2017-12-11T10:16:17.313Z,1896
2017-12-11T10:17:17.546Z,1892
2017-12-11T10:18:17.580Z,1860
2017-12-11T10:19:17.287Z,1804
2017-12-11T10:20:18.487Z,1756
2017-12-11T10:21:17.977Z,1720
2017-12-11T10:22:17.902Z,1712
2017-12-11T10:23:18.604Z,1708
2017-12-11T10:24:18.392Z,1688
2017-12-11T10:25:18.394Z,1656
2017-12-11T10:26:19.283Z,1636
2017-12-11T10:27:18.597Z,1616
2017-12-11T10:28:20.175Z,1604
2017-12-11T10:29:18.871Z,1556
2017-12-11T10:30:33.260Z,1464
2017-12-11T10:31:19.070Z,1432
2017-12-11T10:32:18.509Z,1420
2017-12-11T10:33:21.115Z,1416
2017-12-11T10:34:19.144Z,1404
2017-12-11T10:35:19.377Z,1396
2017-12-11T10:36:20.353Z,1388
2017-12-11T10:37:20.465Z,1400
2017-12-11T10:38:19.849Z,1448
2017-12-11T10:39:20.311Z,1508
2017-12-11T10:40:20.113Z,1532
2017-12-11T10:41:22.000Z,1508
2017-12-11T10:42:21.496Z,1468
2017-12-11T10:43:21.346Z,1420
2017-12-11T10:44:20.921Z,1368
2017-12-11T10:45:21.320Z,1336
2017-12-11T10:46:21.798Z,1340
2017-12-11T10:47:21.609Z,1388
2017-12-11T10:48:21.822Z,1448
2017-12-11T10:49:22.742Z,1504
2017-12-11T10:50:21.729Z,1548
2017-12-11T10:51:21.867Z,1580
2017-12-11T10:52:21.667Z,1596
2017-12-11T10:53:21.708Z,1596
2017-12-11T10:54:21.923Z,1604
2017-12-11T10:55:22.525Z,1592
2017-12-11T10:56:22.976Z,1564
2017-12-11T10:57:23.030Z,1528
2017-12-11T10:58:23.813Z,1496
2017-12-11T10:59:22.790Z,1476
2017-12-11T11:00:22.381Z,1468
2017-12-11T11:01:23.349Z,1464
2017-12-11T11:02:23.306Z,1476
2017-12-11T11:03:23.086Z,1492
2017-12-11T11:04:23.006Z,1516
2017-12-11T11:06:23.068Z,1568
2017-12-11T11:07:22.989Z,1584
2017-12-11T11:08:23.627Z,1572
2017-12-11T11:09:23.382Z,1536
2017-12-11T11:10:23.108Z,1488
2017-12-11T11:11:24.295Z,1424
2017-12-11T11:12:23.318Z,1356
2017-12-11T11:13:25.062Z,1296
2017-12-11T11:14:23.682Z,1248
2017-12-11T11:15:23.508Z,1216
2017-12-11T11:16:23.566Z,1200
2017-12-11T11:17:23.907Z,1188
2017-12-11T11:18:23.670Z,1164
2017-12-11T11:19:24.552Z,1132
2017-12-11T11:20:23.895Z,1096
2017-12-11T11:21:24.933Z,1076
2017-12-11T11:22:24.452Z,1072
2017-12-11T11:23:24.461Z,1076
2017-12-11T11:24:24.323Z,1076
2017-12-11T11:25:24.618Z,1080
2017-12-11T11:26:24.524Z,1064
2017-12-11T11:27:24.688Z,1068
2017-12-11T11:28:25.473Z,1068
2017-12-11T11:29:26.474Z,1084
2017-12-11T11:30:25.128Z,1084
2017-12-11T11:31:25.342Z,1088
2017-12-11T11:32:25.764Z,1080
2017-12-11T11:33:26.494Z,1068
2017-12-11T11:34:26.482Z,1060
2017-12-11T11:35:27.436Z,1044
2017-12-11T11:36:26.955Z,1036
2017-12-11T11:37:27.124Z,1024
2017-12-11T11:38:26.467Z,1016
2017-12-11T11:39:26.830Z,1028
2017-12-11T11:40:27.302Z,1056
2017-12-11T11:41:27.785Z,1076
2017-12-11T11:42:27.888Z,1112
2017-12-11T11:43:27.282Z,1120
2017-12-11T11:44:27.656Z,1144
2017-12-11T11:45:27.436Z,1148
2017-12-11T11:46:28.322Z,1156
2017-12-11T11:48:28.316Z,1132
2017-12-11T11:49:28.394Z,1136
2017-12-11T11:50:28.104Z,1152
2017-12-11T11:51:28.297Z,1188
2017-12-11T11:52:28.397Z,1184
2017-12-11T11:53:28.288Z,1160
2017-12-11T11:54:28.469Z,1104
2017-12-11T11:55:28.434Z,1072
2017-12-11T11:56:28.803Z,1048
2017-12-11T11:58:29.274Z,1048
2017-12-11T11:59:29.461Z,1056
2017-12-11T12:00:29.530Z,1088
2017-12-11T12:01:32.333Z,1124
2017-12-11T12:02:30.877Z,1140
2017-12-11T12:03:31.029Z,1132
2017-12-11T12:04:31.306Z,1112
2017-12-11T12:05:31.049Z,1092
2017-12-11T12:06:31.368Z,1080
2017-12-11T12:07:31.532Z,1092
2017-12-11T12:08:31.448Z,1116
2017-12-11T12:09:31.231Z,1164
2017-12-11T12:10:31.756Z,1208
2017-12-11T12:11:31.534Z,1232
2017-12-11T12:12:31.603Z,1220
2017-12-11T12:13:31.559Z,1196
2017-12-11T12:14:31.552Z,1172
2017-12-11T12:15:32.267Z,1156
2017-12-11T12:16:31.897Z,1148
2017-12-11T12:17:31.914Z,1148
2017-12-11T12:18:32.661Z,1144
2017-12-11T12:19:32.057Z,1136
2017-12-11T12:20:33.129Z,1128
2017-12-11T12:21:32.396Z,1128
2017-12-11T12:22:32.686Z,1132
2017-12-11T12:23:32.574Z,1132
2017-12-11T12:24:32.849Z,1128
2017-12-11T12:25:35.590Z,1108
2017-12-11T12:26:33.520Z,1104
2017-12-11T12:27:33.065Z,1108
2017-12-11T12:28:33.390Z,1116
2017-12-11T12:29:35.476Z,1136
2017-12-11T12:30:35.030Z,1172
2017-12-11T12:31:34.222Z,1216
2017-12-11T12:32:34.495Z,1240
2017-12-11T12:33:33.905Z,1244
2017-12-11T12:34:35.384Z,1240
2017-12-11T12:35:34.967Z,1228
2017-12-11T12:36:35.067Z,1220
2017-12-11T12:37:36.099Z,1212
2017-12-11T12:38:34.955Z,1204
2017-12-11T12:39:34.956Z,1208
2017-12-11T12:40:34.795Z,1216
2017-12-11T12:41:35.016Z,1236
2017-12-11T12:42:35.719Z,1252
2017-12-11T12:43:35.493Z,1248
2017-12-11T12:44:35.056Z,1236
2017-12-11T12:45:36.220Z,1204
2017-12-11T12:46:36.356Z,1184
2017-12-11T12:47:36.086Z,1188
2017-12-11T12:48:37.200Z,1192
2017-12-11T12:49:36.779Z,1184
2017-12-11T12:50:37.293Z,1168
2017-12-11T12:51:36.091Z,1156
2017-12-11T12:52:36.465Z,1140
2017-12-11T12:53:36.336Z,1120
2017-12-11T12:54:36.801Z,1100
2017-12-11T12:55:36.717Z,1076
2017-12-11T12:56:36.596Z,1056
2017-12-11T12:57:36.639Z,1052
2017-12-11T12:58:36.458Z,1048
2017-12-11T12:59:36.693Z,1052
2017-12-11T13:00:36.882Z,1056
2017-12-11T13:01:53.038Z,1064
2017-12-11T13:02:39.123Z,1084
2017-12-11T13:03:39.569Z,1116
2017-12-11T13:04:40.249Z,1120
2017-12-11T13:05:40.398Z,1112
2017-12-11T13:06:40.552Z,1112
2017-12-11T13:07:40.472Z,1120
2017-12-11T13:08:41.403Z,1120
2017-12-11T13:09:41.486Z,1108
2017-12-11T13:10:40.954Z,1104
2017-12-11T13:11:41.397Z,1100
2017-12-11T13:12:47.305Z,1124
2017-12-11T13:13:46.351Z,1144
2017-12-11T13:14:46.204Z,1172
2017-12-11T13:15:46.294Z,1200
2017-12-11T13:16:46.785Z,1216
2017-12-11T13:17:46.577Z,1228
2017-12-11T13:18:46.392Z,1240
2017-12-11T13:19:46.935Z,1256
2017-12-11T13:20:46.661Z,1272
2017-12-11T13:21:46.713Z,1288
2017-12-11T13:22:46.376Z,1304
2017-12-11T13:23:46.944Z,1300
2017-12-11T13:24:46.780Z,1272
2017-12-11T13:25:47.692Z,1224
2017-12-11T13:26:47.787Z,1188
2017-12-11T13:27:47.468Z,1176
2017-12-11T13:28:47.532Z,1148
2017-12-11T13:29:47.118Z,1124
2017-12-11T13:30:46.998Z,1088
2017-12-11T13:31:47.475Z,1048
2017-12-11T13:32:47.832Z,988
2017-12-11T13:33:47.763Z,956
2017-12-11T13:34:53.180Z,936
2017-12-11T13:35:53.325Z,932
2017-12-11T13:36:52.648Z,932
2017-12-11T13:37:52.647Z,924
2017-12-11T13:38:54.084Z,924
2017-12-11T13:39:53.244Z,916
2017-12-11T13:40:52.865Z,912
2017-12-11T13:41:53.242Z,920
2017-12-11T13:42:53.540Z,924
2017-12-11T13:43:53.578Z,920
2017-12-11T13:44:54.162Z,900
2017-12-11T13:45:54.422Z,876
2017-12-11T13:46:55.083Z,852
2017-12-11T13:47:54.772Z,804
2017-12-11T13:48:54.218Z,744
2017-12-11T13:49:54.647Z,680
2017-12-11T13:50:54.834Z,628
2017-12-11T13:51:54.521Z,604
2017-12-11T13:52:54.788Z,576
2017-12-11T13:53:54.086Z,556
2017-12-11T13:54:54.317Z,532
2017-12-11T13:55:54.308Z,504
2017-12-11T13:56:54.358Z,468
2017-12-11T13:57:54.252Z,440
2017-12-11T13:58:54.458Z,416
2017-12-11T13:59:54.587Z,404
2017-12-11T14:00:55.105Z,400
2017-12-11T14:01:57.336Z,392
2017-12-11T14:02:55.497Z,372
2017-12-11T14:03:56.026Z,348
2017-12-11T14:04:55.834Z,304
2017-12-11T14:05:56.415Z,252
2017-12-11T14:06:55.209Z,228
2017-12-11T14:07:56.771Z,224
2017-12-11T14:08:56.983Z,224
2017-12-11T14:09:57.056Z,224